sensor_id;sensor_type;location;lat;lon;timestamp;P1;durP1;ratioP1;P2;durP2;ratioP2
2544;SDS011;36212;48.838;9.142;2023-03-04T00:01:00;28.20;;;20.10;;
2544;SDS011;36212;48.838;9.142;2023-03-04T00:03:33;35.33;;;23.17;;
2544;SDS011;36212;48.838;9.142;2023-03-04T00:06:06;30.40;;;21.25;;
2544;SDS011;36212;48.838;9.142;2023-03-04T00:08:39;32.42;;;20.80;;
2544;SDS011;36212;48.838;9.142;2023-03-04T00:11:11;34.45;;;20.48;;
2544;SDS011;36212;48.838;9.142;2023-03-04T00:13:43;27.63;;;20.17;;
2544;SDS011;36212;48.838;9.142;2023-03-04T00:16:16;29.77;;;18.63;;
2544;SDS011;36212;48.838;9.142;2023-03-04T00:18:48;30.42;;;23.15;;
2544;SDS011;36212;48.838;9.142;2023-03-04T00:21:20;33.00;;;19.65;;
2544;SDS011;36212;48.838;9.142;2023-03-04T00:23:53;33.53;;;21.20;;
2544;SDS011;36212;48.838;9.142;2023-03-04T00:26:25;30.88;;;21.20;;
2544;SDS011;36212;48.838;9.142;2023-03-04T00:28:58;31.52;;;20.35;;
2544;SDS011;36212;48.838;9.142;2023-03-04T00:31:30;31.92;;;20.75;;
2544;SDS011;36212;48.838;9.142;2023-03-04T00:34:02;26.30;;;20.40;;
2544;SDS011;36212;48.838;9.142;2023-03-04T00:36:34;31.88;;;20.00;;
2544;SDS011;36212;48.838;9.142;2023-03-04T00:39:06;33.40;;;20.88;;
2544;SDS011;36212;48.838;9.142;2023-03-04T00:41:38;32.17;;;20.13;;
2544;SDS011;36212;48.838;9.142;2023-03-04T00:44:11;31.63;;;19.95;;
2544;SDS011;36212;48.838;9.142;2023-03-04T00:46:43;32.08;;;20.50;;
2544;SDS011;36212;48.838;9.142;2023-03-04T00:49:16;34.53;;;23.08;;
2544;SDS011;36212;48.838;9.142;2023-03-04T00:51:47;34.35;;;21.10;;
2544;SDS011;36212;48.838;9.142;2023-03-04T00:54:19;29.85;;;20.70;;
2544;SDS011;36212;48.838;9.142;2023-03-04T00:56:52;33.45;;;19.75;;
2544;SDS011;36212;48.838;9.142;2023-03-04T00:59:24;39.80;;;22.25;;
2544;SDS011;36212;48.838;9.142;2023-03-04T01:01:56;32.97;;;21.23;;
2544;SDS011;36212;48.838;9.142;2023-03-04T01:04:28;28.50;;;19.20;;
2544;SDS011;36212;48.838;9.142;2023-03-04T01:07:00;27.27;;;20.65;;
2544;SDS011;36212;48.838;9.142;2023-03-04T01:09:32;33.00;;;19.67;;
2544;SDS011;36212;48.838;9.142;2023-03-04T01:12:04;32.97;;;20.17;;
2544;SDS011;36212;48.838;9.142;2023-03-04T01:14:37;29.33;;;20.10;;
2544;SDS011;36212;48.838;9.142;2023-03-04T01:17:09;26.48;;;18.85;;
2544;SDS011;36212;48.838;9.142;2023-03-04T01:19:42;28.73;;;18.95;;
2544;SDS011;36212;48.838;9.142;2023-03-04T01:22:14;31.13;;;18.67;;
2544;SDS011;36212;48.838;9.142;2023-03-04T01:24:49;30.17;;;19.40;;
2544;SDS011;36212;48.838;9.142;2023-03-04T01:27:21;30.02;;;19.95;;
2544;SDS011;36212;48.838;9.142;2023-03-04T01:29:55;32.20;;;19.60;;
2544;SDS011;36212;48.838;9.142;2023-03-04T01:32:27;28.85;;;19.52;;
2544;SDS011;36212;48.838;9.142;2023-03-04T01:34:59;32.33;;;20.15;;
2544;SDS011;36212;48.838;9.142;2023-03-04T01:37:31;29.95;;;19.85;;
2544;SDS011;36212;48.838;9.142;2023-03-04T01:40:04;31.38;;;19.48;;
2544;SDS011;36212;48.838;9.142;2023-03-04T01:42:38;32.00;;;20.48;;
2544;SDS011;36212;48.838;9.142;2023-03-04T01:45:14;27.65;;;19.83;;
2544;SDS011;36212;48.838;9.142;2023-03-04T01:47:49;33.10;;;20.25;;
2544;SDS011;36212;48.838;9.142;2023-03-04T01:50:32;30.92;;;19.77;;
2544;SDS011;36212;48.838;9.142;2023-03-04T01:53:06;25.27;;;18.75;;
2544;SDS011;36212;48.838;9.142;2023-03-04T01:55:56;22.42;;;16.05;;
2544;SDS011;36212;48.838;9.142;2023-03-04T02:01:48;28.73;;;17.98;;
2544;SDS011;36212;48.838;9.142;2023-03-04T02:07:04;31.80;;;18.27;;
2544;SDS011;36212;48.838;9.142;2023-03-04T02:09:37;28.20;;;17.85;;
2544;SDS011;36212;48.838;9.142;2023-03-04T02:12:09;26.38;;;17.48;;
2544;SDS011;36212;48.838;9.142;2023-03-04T02:14:41;28.95;;;17.50;;
2544;SDS011;36212;48.838;9.142;2023-03-04T02:17:13;19.42;;;16.42;;
2544;SDS011;36212;48.838;9.142;2023-03-04T02:22:34;21.95;;;16.65;;
2544;SDS011;36212;48.838;9.142;2023-03-04T02:25:21;25.27;;;17.25;;
2544;SDS011;36212;48.838;9.142;2023-03-04T02:28:05;27.30;;;17.42;;
2544;SDS011;36212;48.838;9.142;2023-03-04T02:30:37;23.17;;;17.48;;
2544;SDS011;36212;48.838;9.142;2023-03-04T02:33:12;26.55;;;17.05;;
2544;SDS011;36212;48.838;9.142;2023-03-04T02:35:47;23.88;;;16.83;;
2544;SDS011;36212;48.838;9.142;2023-03-04T02:38:20;24.08;;;16.05;;
2544;SDS011;36212;48.838;9.142;2023-03-04T02:40:52;22.90;;;16.45;;
2544;SDS011;36212;48.838;9.142;2023-03-04T02:43:26;27.00;;;17.15;;
2544;SDS011;36212;48.838;9.142;2023-03-04T02:45:58;21.30;;;15.40;;
2544;SDS011;36212;48.838;9.142;2023-03-04T02:48:30;26.00;;;15.95;;
2544;SDS011;36212;48.838;9.142;2023-03-04T02:51:02;28.23;;;16.88;;
2544;SDS011;36212;48.838;9.142;2023-03-04T02:56:30;25.50;;;16.42;;
2544;SDS011;36212;48.838;9.142;2023-03-04T02:59:02;24.50;;;16.67;;
2544;SDS011;36212;48.838;9.142;2023-03-04T03:01:34;22.95;;;15.32;;
2544;SDS011;36212;48.838;9.142;2023-03-04T03:04:06;22.42;;;14.93;;
2544;SDS011;36212;48.838;9.142;2023-03-04T03:06:39;23.45;;;17.77;;
2544;SDS011;36212;48.838;9.142;2023-03-04T03:09:12;28.10;;;17.95;;
2544;SDS011;36212;48.838;9.142;2023-03-04T03:11:44;23.70;;;16.48;;
2544;SDS011;36212;48.838;9.142;2023-03-04T03:14:16;26.60;;;17.67;;
2544;SDS011;36212;48.838;9.142;2023-03-04T03:16:48;21.50;;;14.98;;
2544;SDS011;36212;48.838;9.142;2023-03-04T03:19:20;22.95;;;16.95;;
2544;SDS011;36212;48.838;9.142;2023-03-04T03:21:52;26.92;;;16.10;;
2544;SDS011;36212;48.838;9.142;2023-03-04T03:24:24;23.30;;;17.00;;
2544;SDS011;36212;48.838;9.142;2023-03-04T03:26:56;24.75;;;16.20;;
2544;SDS011;36212;48.838;9.142;2023-03-04T03:29:28;27.58;;;16.73;;
2544;SDS011;36212;48.838;9.142;2023-03-04T03:32:00;25.33;;;15.65;;
2544;SDS011;36212;48.838;9.142;2023-03-04T03:34:32;21.70;;;14.65;;
2544;SDS011;36212;48.838;9.142;2023-03-04T03:37:04;25.90;;;16.92;;
2544;SDS011;36212;48.838;9.142;2023-03-04T03:39:37;25.73;;;14.80;;
2544;SDS011;36212;48.838;9.142;2023-03-04T03:42:09;24.88;;;15.07;;
2544;SDS011;36212;48.838;9.142;2023-03-04T03:44:41;25.42;;;16.52;;
2544;SDS011;36212;48.838;9.142;2023-03-04T03:47:13;22.55;;;15.93;;
2544;SDS011;36212;48.838;9.142;2023-03-04T03:49:45;24.92;;;15.70;;
2544;SDS011;36212;48.838;9.142;2023-03-04T03:52:17;26.33;;;17.65;;
2544;SDS011;36212;48.838;9.142;2023-03-04T03:54:49;22.70;;;16.23;;
2544;SDS011;36212;48.838;9.142;2023-03-04T03:57:21;24.90;;;17.30;;
2544;SDS011;36212;48.838;9.142;2023-03-04T04:03:03;27.00;;;15.30;;
2544;SDS011;36212;48.838;9.142;2023-03-04T04:05:35;22.80;;;15.57;;
2544;SDS011;36212;48.838;9.142;2023-03-04T04:08:10;28.92;;;18.85;;
2544;SDS011;36212;48.838;9.142;2023-03-04T04:10:46;24.90;;;17.35;;
2544;SDS011;36212;48.838;9.142;2023-03-04T04:13:19;25.75;;;17.23;;
2544;SDS011;36212;48.838;9.142;2023-03-04T04:15:51;24.45;;;16.58;;
2544;SDS011;36212;48.838;9.142;2023-03-04T04:18:24;26.38;;;16.50;;
2544;SDS011;36212;48.838;9.142;2023-03-04T04:20:56;29.17;;;16.77;;
2544;SDS011;36212;48.838;9.142;2023-03-04T04:23:34;25.83;;;16.50;;
2544;SDS011;36212;48.838;9.142;2023-03-04T04:26:06;25.92;;;17.60;;
2544;SDS011;36212;48.838;9.142;2023-03-04T04:28:38;31.45;;;19.50;;
2544;SDS011;36212;48.838;9.142;2023-03-04T04:31:10;22.73;;;15.48;;
2544;SDS011;36212;48.838;9.142;2023-03-04T04:33:42;26.40;;;15.88;;
2544;SDS011;36212;48.838;9.142;2023-03-04T04:36:15;32.33;;;18.60;;
2544;SDS011;36212;48.838;9.142;2023-03-04T04:38:47;26.02;;;16.80;;
2544;SDS011;36212;48.838;9.142;2023-03-04T04:41:24;27.70;;;18.23;;
2544;SDS011;36212;48.838;9.142;2023-03-04T04:44:09;25.05;;;18.60;;
2544;SDS011;36212;48.838;9.142;2023-03-04T04:46:42;25.30;;;16.95;;
2544;SDS011;36212;48.838;9.142;2023-03-04T04:49:14;24.48;;;15.15;;
2544;SDS011;36212;48.838;9.142;2023-03-04T04:51:46;26.98;;;17.13;;
2544;SDS011;36212;48.838;9.142;2023-03-04T04:54:18;31.35;;;18.65;;
2544;SDS011;36212;48.838;9.142;2023-03-04T04:56:50;24.40;;;17.60;;
2544;SDS011;36212;48.838;9.142;2023-03-04T04:59:25;26.02;;;17.40;;
2544;SDS011;36212;48.838;9.142;2023-03-04T05:01:57;29.92;;;17.35;;
2544;SDS011;36212;48.838;9.142;2023-03-04T05:04:30;27.90;;;16.38;;
2544;SDS011;36212;48.838;9.142;2023-03-04T05:07:02;24.27;;;16.38;;
2544;SDS011;36212;48.838;9.142;2023-03-04T05:09:34;25.45;;;16.02;;
2544;SDS011;36212;48.838;9.142;2023-03-04T05:12:06;29.20;;;18.40;;
2544;SDS011;36212;48.838;9.142;2023-03-04T05:14:38;29.48;;;17.25;;
2544;SDS011;36212;48.838;9.142;2023-03-04T05:17:10;25.67;;;17.25;;
2544;SDS011;36212;48.838;9.142;2023-03-04T05:19:42;24.27;;;16.40;;
2544;SDS011;36212;48.838;9.142;2023-03-04T05:22:14;29.90;;;20.02;;
2544;SDS011;36212;48.838;9.142;2023-03-04T05:24:46;28.38;;;16.63;;
2544;SDS011;36212;48.838;9.142;2023-03-04T05:27:18;27.00;;;17.15;;
2544;SDS011;36212;48.838;9.142;2023-03-04T05:29:50;27.40;;;15.98;;
2544;SDS011;36212;48.838;9.142;2023-03-04T05:32:24;29.17;;;16.27;;
2544;SDS011;36212;48.838;9.142;2023-03-04T05:34:57;28.10;;;17.05;;
2544;SDS011;36212;48.838;9.142;2023-03-04T05:37:29;29.20;;;17.98;;
2544;SDS011;36212;48.838;9.142;2023-03-04T05:40:01;27.75;;;18.45;;
2544;SDS011;36212;48.838;9.142;2023-03-04T05:42:34;27.00;;;16.60;;
2544;SDS011;36212;48.838;9.142;2023-03-04T05:45:06;32.35;;;18.92;;
2544;SDS011;36212;48.838;9.142;2023-03-04T05:47:39;28.60;;;17.88;;
2544;SDS011;36212;48.838;9.142;2023-03-04T05:50:11;28.85;;;17.98;;
2544;SDS011;36212;48.838;9.142;2023-03-04T05:52:43;34.20;;;19.63;;
2544;SDS011;36212;48.838;9.142;2023-03-04T05:55:16;30.92;;;19.40;;
2544;SDS011;36212;48.838;9.142;2023-03-04T05:57:48;32.28;;;17.75;;
2544;SDS011;36212;48.838;9.142;2023-03-04T06:00:20;34.15;;;17.77;;
2544;SDS011;36212;48.838;9.142;2023-03-04T06:02:53;32.00;;;19.00;;
2544;SDS011;36212;48.838;9.142;2023-03-04T06:05:25;33.92;;;18.50;;
2544;SDS011;36212;48.838;9.142;2023-03-04T06:07:57;30.55;;;18.02;;
2544;SDS011;36212;48.838;9.142;2023-03-04T06:10:29;29.90;;;17.27;;
2544;SDS011;36212;48.838;9.142;2023-03-04T06:13:01;28.73;;;17.45;;
2544;SDS011;36212;48.838;9.142;2023-03-04T06:15:34;36.15;;;20.50;;
2544;SDS011;36212;48.838;9.142;2023-03-04T06:18:07;28.77;;;17.67;;
2544;SDS011;36212;48.838;9.142;2023-03-04T06:20:39;24.60;;;17.42;;
2544;SDS011;36212;48.838;9.142;2023-03-04T06:23:11;30.10;;;18.05;;
2544;SDS011;36212;48.838;9.142;2023-03-04T06:25:52;30.40;;;17.85;;
2544;SDS011;36212;48.838;9.142;2023-03-04T06:28:27;30.40;;;18.45;;
2544;SDS011;36212;48.838;9.142;2023-03-04T06:31:00;32.28;;;18.52;;
2544;SDS011;36212;48.838;9.142;2023-03-04T06:33:32;36.28;;;19.75;;
2544;SDS011;36212;48.838;9.142;2023-03-04T06:36:04;34.22;;;17.77;;
2544;SDS011;36212;48.838;9.142;2023-03-04T06:38:37;31.92;;;17.52;;
2544;SDS011;36212;48.838;9.142;2023-03-04T06:41:10;29.77;;;18.05;;
2544;SDS011;36212;48.838;9.142;2023-03-04T06:43:43;27.42;;;17.70;;
2544;SDS011;36212;48.838;9.142;2023-03-04T06:46:15;35.88;;;19.52;;
2544;SDS011;36212;48.838;9.142;2023-03-04T06:48:47;35.38;;;18.50;;
2544;SDS011;36212;48.838;9.142;2023-03-04T06:51:19;28.48;;;18.65;;
2544;SDS011;36212;48.838;9.142;2023-03-04T06:53:51;30.65;;;18.05;;
2544;SDS011;36212;48.838;9.142;2023-03-04T06:56:24;33.22;;;19.75;;
2544;SDS011;36212;48.838;9.142;2023-03-04T06:58:56;37.22;;;20.10;;
2544;SDS011;36212;48.838;9.142;2023-03-04T07:01:28;36.08;;;20.48;;
2544;SDS011;36212;48.838;9.142;2023-03-04T07:04:00;31.80;;;18.65;;
2544;SDS011;36212;48.838;9.142;2023-03-04T07:06:33;34.78;;;20.08;;
2544;SDS011;36212;48.838;9.142;2023-03-04T07:09:05;39.28;;;22.13;;
2544;SDS011;36212;48.838;9.142;2023-03-04T07:11:37;32.47;;;19.75;;
2544;SDS011;36212;48.838;9.142;2023-03-04T07:14:10;39.53;;;22.33;;
2544;SDS011;36212;48.838;9.142;2023-03-04T07:16:42;31.85;;;20.02;;
2544;SDS011;36212;48.838;9.142;2023-03-04T07:19:32;34.00;;;21.25;;
2544;SDS011;36212;48.838;9.142;2023-03-04T07:22:05;28.02;;;18.58;;
2544;SDS011;36212;48.838;9.142;2023-03-04T07:24:37;30.48;;;19.95;;
2544;SDS011;36212;48.838;9.142;2023-03-04T07:27:09;31.95;;;18.65;;
2544;SDS011;36212;48.838;9.142;2023-03-04T07:29:41;32.72;;;18.67;;
2544;SDS011;36212;48.838;9.142;2023-03-04T07:32:19;31.38;;;20.13;;
2544;SDS011;36212;48.838;9.142;2023-03-04T07:34:51;36.88;;;19.98;;
2544;SDS011;36212;48.838;9.142;2023-03-04T07:37:23;31.52;;;18.55;;
2544;SDS011;36212;48.838;9.142;2023-03-04T07:39:55;28.42;;;17.38;;
2544;SDS011;36212;48.838;9.142;2023-03-04T07:42:27;34.55;;;19.27;;
2544;SDS011;36212;48.838;9.142;2023-03-04T07:44:59;33.25;;;20.50;;
2544;SDS011;36212;48.838;9.142;2023-03-04T07:47:34;31.25;;;19.38;;
2544;SDS011;36212;48.838;9.142;2023-03-04T07:50:07;28.20;;;18.50;;
2544;SDS011;36212;48.838;9.142;2023-03-04T07:52:41;29.30;;;18.05;;
2544;SDS011;36212;48.838;9.142;2023-03-04T07:55:17;26.40;;;16.02;;
2544;SDS011;36212;48.838;9.142;2023-03-04T07:57:55;34.13;;;19.15;;
2544;SDS011;36212;48.838;9.142;2023-03-04T08:00:28;25.77;;;16.90;;
2544;SDS011;36212;48.838;9.142;2023-03-04T08:03:00;30.20;;;17.45;;
2544;SDS011;36212;48.838;9.142;2023-03-04T08:05:32;29.15;;;17.70;;
2544;SDS011;36212;48.838;9.142;2023-03-04T08:08:04;35.72;;;17.85;;
2544;SDS011;36212;48.838;9.142;2023-03-04T08:10:36;34.83;;;19.85;;
2544;SDS011;36212;48.838;9.142;2023-03-04T08:13:10;34.35;;;18.92;;
2544;SDS011;36212;48.838;9.142;2023-03-04T08:15:42;33.00;;;18.67;;
2544;SDS011;36212;48.838;9.142;2023-03-04T08:18:14;32.15;;;17.85;;
2544;SDS011;36212;48.838;9.142;2023-03-04T08:20:47;34.13;;;19.27;;
2544;SDS011;36212;48.838;9.142;2023-03-04T08:23:19;30.27;;;17.65;;
2544;SDS011;36212;48.838;9.142;2023-03-04T08:25:51;29.67;;;19.15;;
2544;SDS011;36212;48.838;9.142;2023-03-04T08:28:23;31.17;;;18.85;;
2544;SDS011;36212;48.838;9.142;2023-03-04T08:30:55;30.63;;;18.25;;
2544;SDS011;36212;48.838;9.142;2023-03-04T08:33:28;30.02;;;19.10;;
2544;SDS011;36212;48.838;9.142;2023-03-04T08:36:01;32.75;;;19.38;;
2544;SDS011;36212;48.838;9.142;2023-03-04T08:38:34;33.33;;;19.15;;
2544;SDS011;36212;48.838;9.142;2023-03-04T08:41:06;32.25;;;19.60;;
2544;SDS011;36212;48.838;9.142;2023-03-04T08:43:38;25.38;;;16.92;;
2544;SDS011;36212;48.838;9.142;2023-03-04T08:46:11;27.58;;;17.75;;
2544;SDS011;36212;48.838;9.142;2023-03-04T08:48:43;32.63;;;16.95;;
2544;SDS011;36212;48.838;9.142;2023-03-04T08:51:16;36.13;;;19.10;;
2544;SDS011;36212;48.838;9.142;2023-03-04T08:53:48;30.30;;;19.60;;
2544;SDS011;36212;48.838;9.142;2023-03-04T08:56:21;29.92;;;19.88;;
2544;SDS011;36212;48.838;9.142;2023-03-04T08:58:53;33.53;;;18.58;;
2544;SDS011;36212;48.838;9.142;2023-03-04T09:04:24;32.85;;;17.95;;
2544;SDS011;36212;48.838;9.142;2023-03-04T09:06:57;31.02;;;19.00;;
2544;SDS011;36212;48.838;9.142;2023-03-04T09:09:29;33.10;;;19.23;;
2544;SDS011;36212;48.838;9.142;2023-03-04T09:12:01;30.88;;;18.42;;
2544;SDS011;36212;48.838;9.142;2023-03-04T09:14:33;28.20;;;18.45;;
2544;SDS011;36212;48.838;9.142;2023-03-04T09:17:06;28.10;;;19.05;;
2544;SDS011;36212;48.838;9.142;2023-03-04T09:19:39;28.83;;;16.83;;
2544;SDS011;36212;48.838;9.142;2023-03-04T09:22:11;30.35;;;18.00;;
2544;SDS011;36212;48.838;9.142;2023-03-04T09:24:43;30.88;;;17.92;;
2544;SDS011;36212;48.838;9.142;2023-03-04T09:27:15;30.30;;;17.58;;
2544;SDS011;36212;48.838;9.142;2023-03-04T09:29:48;34.40;;;25.30;;
2544;SDS011;36212;48.838;9.142;2023-03-04T09:32:20;28.15;;;18.20;;
2544;SDS011;36212;48.838;9.142;2023-03-04T09:34:53;31.55;;;23.20;;
2544;SDS011;36212;48.838;9.142;2023-03-04T09:37:25;32.42;;;18.48;;
2544;SDS011;36212;48.838;9.142;2023-03-04T09:39:58;29.63;;;20.00;;
2544;SDS011;36212;48.838;9.142;2023-03-04T09:42:32;25.55;;;18.25;;
2544;SDS011;36212;48.838;9.142;2023-03-04T09:45:22;25.67;;;17.38;;
2544;SDS011;36212;48.838;9.142;2023-03-04T09:48:06;25.38;;;16.08;;
2544;SDS011;36212;48.838;9.142;2023-03-04T09:51:11;28.92;;;21.70;;
2544;SDS011;36212;48.838;9.142;2023-03-04T09:57:39;26.02;;;18.42;;
2544;SDS011;36212;48.838;9.142;2023-03-04T10:00:45;29.00;;;18.98;;
2544;SDS011;36212;48.838;9.142;2023-03-04T10:06:19;28.02;;;19.88;;
2544;SDS011;36212;48.838;9.142;2023-03-04T10:08:55;34.33;;;25.35;;
2544;SDS011;36212;48.838;9.142;2023-03-04T10:14:43;28.27;;;18.08;;
2544;SDS011;36212;48.838;9.142;2023-03-04T10:23:30;30.63;;;19.10;;
2544;SDS011;36212;48.838;9.142;2023-03-04T10:26:12;32.30;;;21.73;;
2544;SDS011;36212;48.838;9.142;2023-03-04T10:28:48;31.20;;;21.77;;
2544;SDS011;36212;48.838;9.142;2023-03-04T10:31:26;28.20;;;20.27;;
2544;SDS011;36212;48.838;9.142;2023-03-04T10:34:08;29.92;;;20.60;;
2544;SDS011;36212;48.838;9.142;2023-03-04T10:39:32;34.65;;;21.73;;
2544;SDS011;36212;48.838;9.142;2023-03-04T10:44:58;33.72;;;22.13;;
2544;SDS011;36212;48.838;9.142;2023-03-04T10:47:31;33.25;;;23.23;;
2544;SDS011;36212;48.838;9.142;2023-03-04T10:50:05;34.22;;;22.70;;
2544;SDS011;36212;48.838;9.142;2023-03-04T10:52:55;35.35;;;23.23;;
2544;SDS011;36212;48.838;9.142;2023-03-04T10:55:29;32.45;;;22.33;;
2544;SDS011;36212;48.838;9.142;2023-03-04T10:58:18;31.55;;;22.08;;
2544;SDS011;36212;48.838;9.142;2023-03-04T11:01:00;38.67;;;23.63;;
2544;SDS011;36212;48.838;9.142;2023-03-04T11:03:47;37.88;;;22.25;;
2544;SDS011;36212;48.838;9.142;2023-03-04T11:06:22;35.15;;;24.23;;
2544;SDS011;36212;48.838;9.142;2023-03-04T11:08:55;42.58;;;22.88;;
2544;SDS011;36212;48.838;9.142;2023-03-04T11:11:30;35.25;;;21.40;;
2544;SDS011;36212;48.838;9.142;2023-03-04T11:16:59;35.55;;;22.58;;
2544;SDS011;36212;48.838;9.142;2023-03-04T11:19:51;35.92;;;22.88;;
2544;SDS011;36212;48.838;9.142;2023-03-04T11:22:45;38.13;;;25.08;;
2544;SDS011;36212;48.838;9.142;2023-03-04T11:25:23;34.13;;;22.45;;
2544;SDS011;36212;48.838;9.142;2023-03-04T11:28:10;39.45;;;24.70;;
2544;SDS011;36212;48.838;9.142;2023-03-04T11:30:57;41.90;;;25.05;;
2544;SDS011;36212;48.838;9.142;2023-03-04T11:33:47;42.28;;;24.88;;
2544;SDS011;36212;48.838;9.142;2023-03-04T11:36:55;39.58;;;24.50;;
2544;SDS011;36212;48.838;9.142;2023-03-04T11:39:56;44.45;;;27.35;;
2544;SDS011;36212;48.838;9.142;2023-03-04T11:42:44;45.67;;;26.30;;
2544;SDS011;36212;48.838;9.142;2023-03-04T12:23:25;40.38;;;26.13;;
2544;SDS011;36212;48.838;9.142;2023-03-04T12:46:10;40.17;;;25.52;;
2544;SDS011;36212;48.838;9.142;2023-03-04T12:52:15;45.35;;;25.15;;
2544;SDS011;36212;48.838;9.142;2023-03-04T12:55:38;41.38;;;22.95;;
2544;SDS011;36212;48.838;9.142;2023-03-04T12:58:22;38.08;;;24.30;;
2544;SDS011;36212;48.838;9.142;2023-03-04T13:04:08;36.35;;;22.60;;
2544;SDS011;36212;48.838;9.142;2023-03-04T13:07:29;40.78;;;24.45;;
2544;SDS011;36212;48.838;9.142;2023-03-04T13:10:25;36.40;;;23.60;;
2544;SDS011;36212;48.838;9.142;2023-03-04T13:12:59;47.88;;;25.02;;
2544;SDS011;36212;48.838;9.142;2023-03-04T13:15:34;30.02;;;19.70;;
2544;SDS011;36212;48.838;9.142;2023-03-04T13:21:22;31.80;;;20.58;;
2544;SDS011;36212;48.838;9.142;2023-03-04T13:27:50;29.83;;;19.42;;
2544;SDS011;36212;48.838;9.142;2023-03-04T13:34:49;28.27;;;18.05;;
2544;SDS011;36212;48.838;9.142;2023-03-04T13:37:34;25.90;;;18.58;;
2544;SDS011;36212;48.838;9.142;2023-03-04T13:40:32;32.72;;;17.10;;
2544;SDS011;36212;48.838;9.142;2023-03-04T13:46:41;19.95;;;15.18;;
2544;SDS011;36212;48.838;9.142;2023-03-04T13:49:20;24.70;;;15.43;;
2544;SDS011;36212;48.838;9.142;2023-03-04T13:52:34;24.88;;;14.48;;
2544;SDS011;36212;48.838;9.142;2023-03-04T13:55:34;21.98;;;15.30;;
2544;SDS011;36212;48.838;9.142;2023-03-04T13:58:25;19.30;;;13.45;;
2544;SDS011;36212;48.838;9.142;2023-03-04T14:00:57;22.52;;;14.40;;
2544;SDS011;36212;48.838;9.142;2023-03-04T14:03:30;26.20;;;14.70;;
2544;SDS011;36212;48.838;9.142;2023-03-04T14:08:59;19.30;;;14.30;;
2544;SDS011;36212;48.838;9.142;2023-03-04T14:11:44;29.33;;;13.32;;
2544;SDS011;36212;48.838;9.142;2023-03-04T14:14:20;22.73;;;13.38;;
2544;SDS011;36212;48.838;9.142;2023-03-04T14:17:03;21.23;;;14.93;;
2544;SDS011;36212;48.838;9.142;2023-03-04T14:19:47;25.70;;;14.98;;
2544;SDS011;36212;48.838;9.142;2023-03-04T14:22:25;18.83;;;13.98;;
2544;SDS011;36212;48.838;9.142;2023-03-04T14:25:02;28.02;;;15.80;;
2544;SDS011;36212;48.838;9.142;2023-03-04T14:30:59;29.92;;;15.45;;
2544;SDS011;36212;48.838;9.142;2023-03-04T14:33:31;22.90;;;15.95;;
2544;SDS011;36212;48.838;9.142;2023-03-04T14:36:04;20.70;;;15.23;;
2544;SDS011;36212;48.838;9.142;2023-03-04T14:38:46;24.92;;;15.68;;
2544;SDS011;36212;48.838;9.142;2023-03-04T14:41:27;22.13;;;15.02;;
2544;SDS011;36212;48.838;9.142;2023-03-04T14:44:19;26.27;;;14.48;;
2544;SDS011;36212;48.838;9.142;2023-03-04T14:47:23;29.20;;;16.92;;
2544;SDS011;36212;48.838;9.142;2023-03-04T14:50:15;21.23;;;15.20;;
2544;SDS011;36212;48.838;9.142;2023-03-04T14:55:55;27.90;;;15.98;;
2544;SDS011;36212;48.838;9.142;2023-03-04T14:58:37;26.77;;;17.00;;
2544;SDS011;36212;48.838;9.142;2023-03-04T15:01:28;26.25;;;16.85;;
2544;SDS011;36212;48.838;9.142;2023-03-04T15:04:08;23.60;;;15.43;;
2544;SDS011;36212;48.838;9.142;2023-03-04T15:06:49;24.70;;;15.25;;
2544;SDS011;36212;48.838;9.142;2023-03-04T15:09:25;29.23;;;17.15;;
2544;SDS011;36212;48.838;9.142;2023-03-04T15:12:02;20.73;;;14.90;;
2544;SDS011;36212;48.838;9.142;2023-03-04T15:25:28;24.45;;;14.15;;
2544;SDS011;36212;48.838;9.142;2023-03-04T15:28:02;23.65;;;15.27;;
2544;SDS011;36212;48.838;9.142;2023-03-04T15:30:44;25.42;;;16.90;;
2544;SDS011;36212;48.838;9.142;2023-03-04T15:33:17;23.13;;;15.15;;
2544;SDS011;36212;48.838;9.142;2023-03-04T15:35:55;28.40;;;15.10;;
2544;SDS011;36212;48.838;9.142;2023-03-04T15:38:32;27.67;;;16.60;;
2544;SDS011;36212;48.838;9.142;2023-03-04T15:41:05;34.70;;;15.00;;
2544;SDS011;36212;48.838;9.142;2023-03-04T15:43:43;28.40;;;17.05;;
2544;SDS011;36212;48.838;9.142;2023-03-04T15:46:15;27.75;;;15.40;;
2544;SDS011;36212;48.838;9.142;2023-03-04T15:48:49;27.95;;;16.35;;
2544;SDS011;36212;48.838;9.142;2023-03-04T15:51:22;22.20;;;15.68;;
2544;SDS011;36212;48.838;9.142;2023-03-04T15:53:56;26.80;;;16.95;;
2544;SDS011;36212;48.838;9.142;2023-03-04T15:56:31;29.60;;;17.73;;
2544;SDS011;36212;48.838;9.142;2023-03-04T15:59:11;23.55;;;16.50;;
2544;SDS011;36212;48.838;9.142;2023-03-04T16:01:46;22.85;;;15.35;;
2544;SDS011;36212;48.838;9.142;2023-03-04T16:04:19;21.50;;;16.55;;
2544;SDS011;36212;48.838;9.142;2023-03-04T16:06:52;27.00;;;16.42;;
2544;SDS011;36212;48.838;9.142;2023-03-04T16:09:30;22.73;;;17.50;;
2544;SDS011;36212;48.838;9.142;2023-03-04T16:12:02;25.73;;;16.25;;
2544;SDS011;36212;48.838;9.142;2023-03-04T16:14:35;25.30;;;17.40;;
2544;SDS011;36212;48.838;9.142;2023-03-04T16:17:08;29.50;;;17.92;;
2544;SDS011;36212;48.838;9.142;2023-03-04T16:19:42;23.30;;;15.02;;
2544;SDS011;36212;48.838;9.142;2023-03-04T16:22:16;21.55;;;14.90;;
2544;SDS011;36212;48.838;9.142;2023-03-04T16:24:57;27.42;;;16.02;;
2544;SDS011;36212;48.838;9.142;2023-03-04T16:27:35;31.58;;;16.92;;
2544;SDS011;36212;48.838;9.142;2023-03-04T16:30:13;28.67;;;15.90;;
2544;SDS011;36212;48.838;9.142;2023-03-04T16:32:49;23.38;;;15.23;;
2544;SDS011;36212;48.838;9.142;2023-03-04T16:35:25;31.02;;;16.48;;
2544;SDS011;36212;48.838;9.142;2023-03-04T16:38:00;25.50;;;15.60;;
2544;SDS011;36212;48.838;9.142;2023-03-04T16:40:34;30.45;;;14.57;;
2544;SDS011;36212;48.838;9.142;2023-03-04T16:43:08;29.58;;;16.67;;
2544;SDS011;36212;48.838;9.142;2023-03-04T16:45:43;28.35;;;15.45;;
2544;SDS011;36212;48.838;9.142;2023-03-04T16:48:16;36.15;;;17.95;;
2544;SDS011;36212;48.838;9.142;2023-03-04T16:50:51;32.35;;;17.77;;
2544;SDS011;36212;48.838;9.142;2023-03-04T16:53:31;26.08;;;17.02;;
2544;SDS011;36212;48.838;9.142;2023-03-04T16:56:27;31.55;;;18.00;;
2544;SDS011;36212;48.838;9.142;2023-03-04T16:58:59;26.30;;;17.15;;
2544;SDS011;36212;48.838;9.142;2023-03-04T17:01:46;33.78;;;19.27;;
2544;SDS011;36212;48.838;9.142;2023-03-04T17:04:21;26.58;;;15.77;;
2544;SDS011;36212;48.838;9.142;2023-03-04T17:06:54;28.08;;;17.42;;
2544;SDS011;36212;48.838;9.142;2023-03-04T17:09:28;32.90;;;18.05;;
2544;SDS011;36212;48.838;9.142;2023-03-04T17:12:00;29.35;;;17.45;;
2544;SDS011;36212;48.838;9.142;2023-03-04T17:14:36;31.35;;;19.23;;
2544;SDS011;36212;48.838;9.142;2023-03-04T17:17:10;25.63;;;17.50;;
2544;SDS011;36212;48.838;9.142;2023-03-04T17:19:43;29.98;;;17.38;;
2544;SDS011;36212;48.838;9.142;2023-03-04T17:22:18;38.13;;;17.60;;
2544;SDS011;36212;48.838;9.142;2023-03-04T17:24:50;30.25;;;17.05;;
2544;SDS011;36212;48.838;9.142;2023-03-04T17:27:23;25.88;;;15.65;;
2544;SDS011;36212;48.838;9.142;2023-03-04T17:29:56;31.23;;;17.83;;
2544;SDS011;36212;48.838;9.142;2023-03-04T17:32:28;29.95;;;18.30;;
2544;SDS011;36212;48.838;9.142;2023-03-04T17:35:03;45.45;;;22.38;;
2544;SDS011;36212;48.838;9.142;2023-03-04T17:37:38;36.60;;;21.13;;
2544;SDS011;36212;48.838;9.142;2023-03-04T17:40:12;35.72;;;22.50;;
2544;SDS011;36212;48.838;9.142;2023-03-04T17:42:45;29.23;;;19.02;;
2544;SDS011;36212;48.838;9.142;2023-03-04T17:45:17;34.95;;;18.52;;